Aeroporto :
LOGIN :

Iscrizione | Disclaimer

   EN    FR    IT 

 










Sommario :    VFR   VFR Marginale   IFR   IFR Intensivo   IFR Molto Intensivo
Visibilità : 
Base nubi : 
>= 8 km
>= 3000ft
5 / 8 km
1000 / 3000 ft
1500m / 5 km
500 / 1000 ft
800 / 1500m
200 / 500 ft
< 800m
< 200 ft
Simboli :   Temporali  Nebbia  Neve Forte  Precipitazioni Forti  Vento > 20 kt
SIGMETs :   Varie  Temporali  Ghiacco  Turbolenza  Onda orograficha  Ceneri Vulcaniche






- Altitudine del aeroporto : 3 ft
- Codice IATA : LWR


EHLW - Leuuwarden Air Base

ULTIMO METAR :
  • 190625Z AUTO 10004KT 9999 NCD 20/17 Q1020 BLU NOSIG

METARs OBSOLETI :
  • 190556Z AUTO 09003KT 9999 NCD 19/16 Q1020 BLU NOSIG
  • 190555Z AUTO 08003KT 6000 BR NCD 19/17 Q1020 WHT NOSIG
  • 190525Z AUTO 07004KT 5000 BR SCT140 OVC290 18/16 Q1020 WHT NOSIG
  • 190512Z AUTO 06004KT 5000 BR BKN130 OVC300 18/16 Q1020 WHT
  • 190455Z AUTO 07004KT 3700 BR BKN140 17/16 Q1020 GRN
  • 190446Z AUTO 07004KT 3800 BR SCT140 16/16 Q1020 GRN
  • 190426Z AUTO 08005KT 350V140 3600 BR NCD 16/15 Q1020 YLO
  • 190425Z AUTO 07005KT 360V140 3700 BR NCD 16/15 Q1021 GRN
  • 190355Z AUTO 07004KT 4600 BR NCD 16/16 Q1021 GRN
  • 190325Z AUTO 07004KT 3000 BR NCD 16/15 Q1021 YLO
  • 190307Z AUTO 06004KT 4200 BR FEW015CB 16/15 Q1021 GRN
  • 190255Z AUTO 06002KT 5000 BR FEW015CB 16/16 Q1021 WHT
  • 190240Z AUTO 07003KT 5000 BR FEW015CB 16/16 Q1021 WHT
  • 190225Z AUTO 08003KT 360V170 4000 BR FEW015CB 16/15 Q1021 GRN
  • 190204Z AUTO 09003KT 5000 BR FEW015CB 16/15 Q1021 WHT
  • 190155Z AUTO 07004KT 4800 BR FEW015CB 16/15 Q1021 GRN
  • 190143Z AUTO 07003KT 4700 BR FEW015CB 16/16 Q1021 GRN

TAF TAF EHLW
Valido dal 19 a 05 ore il 19 a 17 ore UTC


190428Z 1905/1917 08004KT CAVOK



MetMap, La meteo Aeronautica in un colpo d'occhio ! - Copyright ORBIFLY Dicembre 2007 - Disclaimer

ORBIFLY MET'MAP TEAM :

Programmazione e sviluppo : Alexandra Zaïnal
Concezione : Baudouin d'Aumeries
Supporto tecnico e logistico : Manuel Goepfert
Aiuto : Marc-Olivier Méhu
Aiuto per la traduzione : Arnaldo La Scala




FONTI E CREDITI :

   NOAA